Time;durP1;ratioP1;P1;durP2;ratioP2;P2;SDS_P1;SDS_P2;PMS_P1;PMS_P2;Temp;Humidity;BMP_temperature;BMP_pressure;BME280_temperature;BME280_humidity;BME280_pressure;Samples;Min_cycle;Max_cycle;Signal;HPM_P1;HPM_P2
2022/06/08 00:01:15;;;;;;;4.15;3.17;;;;;;;;;;5024657;28;20026;-92
2022/06/08 00:04:05;;;;;;;4.80;3.35;;;;;;;;;;5020685;28;20067;-92
2022/06/08 00:09:06;;;;;;;5.72;3.08;;;;;;;;;;5012709;23;20054;-92
2022/06/08 00:11:39;;;;;;;7.22;3.25;;;;;;;;;;4999557;28;20045;-92
2022/06/08 00:14:05;;;;;;;13.00;3.53;;;;;;;;;;5000212;28;20114;-93
2022/06/08 00:20:08;;;;;;;5.35;3.38;;;;;;;;;;5067370;23;20038;-95
2022/06/08 00:22:35;;;;;;;10.05;3.83;;;;;;;;;;5016377;28;20030;-93
2022/06/08 00:25:01;;;;;;;5.03;3.38;;;;;;;;;;5020962;28;20022;-93
2022/06/08 00:27:27;;;;;;;8.68;2.75;;;;;;;;;;5141818;23;21218;-96
2022/06/08 00:29:56;;;;;;;4.50;3.10;;;;;;;;;;5000365;28;20042;-92
2022/06/08 00:32:22;;;;;;;4.88;3.30;;;;;;;;;;5000023;28;20026;-92
2022/06/08 00:34:49;;;;;;;11.43;2.80;;;;;;;;;;5000269;28;20077;-94
2022/06/08 00:37:15;;;;;;;7.53;3.03;;;;;;;;;;5019530;28;20064;-94
2022/06/08 00:39:41;;;;;;;6.00;3.42;;;;;;;;;;5019236;28;20030;-91
2022/06/08 00:42:09;;;;;;;6.15;2.90;;;;;;;;;;5018801;28;20022;-92
2022/06/08 00:44:58;;;;;;;10.02;3.10;;;;;;;;;;5018791;28;20395;-92
2022/06/08 00:47:31;;;;;;;12.55;3.33;;;;;;;;;;5018167;28;20030;-93
2022/06/08 00:50:02;;;;;;;8.25;4.28;;;;;;;;;;5026181;28;20037;-93
2022/06/08 00:52:33;;;;;;;6.03;3.53;;;;;;;;;;5028566;28;20089;-94
2022/06/08 00:55:06;;;;;;;8.32;3.50;;;;;;;;;;5026479;28;20117;-92
2022/06/08 00:57:37;;;;;;;10.30;3.50;;;;;;;;;;5009268;28;20591;-92
2022/06/08 01:00:03;;;;;;;;;;;;;;;;;;5020158;28;20467;-93
2022/06/08 01:02:29;;;;;;;11.02;3.60;;;;;;;;;;5016388;28;19905;-92
2022/06/08 01:05:16;;;;;;;5.32;2.60;;;;;;;;;;5016565;28;20021;-93
2022/06/08 01:07:55;;;;;;;5.53;3.60;;;;;;;;;;5023066;28;20097;-95
2022/06/08 01:10:36;;;;;;;6.30;3.88;;;;;;;;;;5023565;28;20042;-93
2022/06/08 01:13:12;;;;;;;6.47;3.70;;;;;;;;;;5019094;28;20507;-94
2022/06/08 01:16:03;;;;;;;7.97;3.08;;;;;;;;;;5021798;28;20051;-93
2022/06/08 01:18:31;;;;;;;10.98;3.20;;;;;;;;;;5020353;28;20026;-92
2022/06/08 01:24:01;;;;;;;4.88;3.25;;;;;;;;;;5017814;28;20061;-93
2022/06/08 01:26:35;;;;;;;5.93;3.00;;;;;;;;;;5016289;28;20427;-93
2022/06/08 01:29:11;;;;;;;5.70;3.22;;;;;;;;;;5017596;28;20034;-91
2022/06/08 01:31:59;;;;;;;7.93;3.08;;;;;;;;;;5017051;28;20026;-92
2022/06/08 01:34:51;;;;;;;9.80;3.20;;;;;;;;;;5017467;28;20030;-93
2022/06/08 01:37:47;;;;;;;7.38;3.80;;;;;;;;;;5017365;28;20030;-92
2022/06/08 01:40:31;;;;;;;6.18;3.40;;;;;;;;;;5003971;28;20026;-93
2022/06/08 01:42:57;;;;;;;12.82;3.03;;;;;;;;;;5019665;28;20026;-94
2022/06/08 01:45:43;;;;;;;12.43;3.60;;;;;;;;;;5016063;28;20484;-92
2022/06/08 01:48:31;;;;;;;5.32;3.13;;;;;;;;;;5018166;28;20499;-92
2022/06/08 01:51:11;;;;;;;5.68;2.70;;;;;;;;;;5019688;28;20026;-93
2022/06/08 01:53:52;;;;;;;7.28;3.10;;;;;;;;;;5018704;28;20106;-91
2022/06/08 01:56:25;;;;;;;7.95;3.05;;;;;;;;;;5018182;28;20101;-92
2022/06/08 01:59:06;;;;;;;4.20;2.47;;;;;;;;;;5022090;28;20084;-92
2022/06/08 02:01:40;;;;;;;2.88;2.33;;;;;;;;;;5019852;28;20064;-92
2022/06/08 02:04:17;;;;;;;4.28;2.58;;;;;;;;;;5015505;28;20026;-91
2022/06/08 02:06:43;;;;;;;9.18;2.60;;;;;;;;;;5014879;28;20064;-92
2022/06/08 02:09:16;;;;;;;7.55;3.30;;;;;;;;;;5012172;28;20032;-92
2022/06/08 02:11:45;;;;;;;6.00;3.30;;;;;;;;;;4997189;28;20415;-93
2022/06/08 02:14:14;;;;;;;5.32;2.38;;;;;;;;;;4998632;28;20053;-92
2022/06/08 02:16:42;;;;;;;5.72;2.70;;;;;;;;;;5008490;28;20082;-92
2022/06/08 02:19:19;;;;;;;13.98;2.92;;;;;;;;;;5016300;28;20026;-92
2022/06/08 02:21:58;;;;;;;8.18;2.63;;;;;;;;;;4998495;28;20030;-93
2022/06/08 02:24:37;;;;;;;3.42;2.75;;;;;;;;;;5016572;28;20506;-93
2022/06/08 02:30:14;;;;;;;5.05;2.40;;;;;;;;;;4975911;28;20069;-93
2022/06/08 02:35:30;;;;;;;4.15;2.63;;;;;;;;;;4996333;28;20069;-91
2022/06/08 02:38:02;;;;;;;6.75;2.42;;;;;;;;;;5028493;28;20803;-93
2022/06/08 02:40:31;;;;;;;8.20;2.70;;;;;;;;;;5035261;28;20025;-93
2022/06/08 02:43:17;;;;;;;6.72;2.78;;;;;;;;;;5036073;28;20077;-95
2022/06/08 02:45:46;;;;;;;7.50;3.05;;;;;;;;;;5034831;28;20030;-94
2022/06/08 02:48:13;;;;;;;6.82;2.80;;;;;;;;;;5035724;28;20036;-94
2022/06/08 02:50:49;;;;;;;4.05;2.75;;;;;;;;;;5034396;28;20090;-95
2022/06/08 02:53:23;;;;;;;5.15;3.15;;;;;;;;;;5034874;28;20048;-93
2022/06/08 02:56:08;;;;;;;4.75;2.75;;;;;;;;;;5035474;28;20010;-95
2022/06/08 02:58:45;;;;;;;6.68;2.72;;;;;;;;;;5035580;28;20101;-95
2022/06/08 03:01:20;;;;;;;7.97;2.53;;;;;;;;;;5033811;28;20018;-94
2022/06/08 03:04:04;;;;;;;;;;;;;;;;;;;;;
2022/06/08 03:06:36;;;;;;;3.05;2.33;;;;;;;;;;5036028;28;20050;-95
2022/06/08 03:09:04;;;;;;;11.73;3.40;;;;;;;;;;5034251;28;20333;-94
2022/06/08 03:11:41;;;;;;;4.57;2.80;;;;;;;;;;5033179;28;20052;-95
2022/06/08 03:14:10;;;;;;;4.68;3.17;;;;;;;;;;5036926;28;20026;-95
2022/06/08 03:16:52;;;;;;;12.55;4.40;;;;;;;;;;5036066;28;20105;-93
2022/06/08 03:19:21;;;;;;;9.18;3.72;;;;;;;;;;5025399;28;20029;-93
2022/06/08 03:21:47;;;;;;;5.38;3.35;;;;;;;;;;5018334;28;20055;-93
2022/06/08 03:24:13;;;;;;;6.38;3.70;;;;;;;;;;5016999;28;20033;-93
2022/06/08 03:26:55;;;;;;;8.23;3.97;;;;;;;;;;5015927;28;20029;-91
2022/06/08 03:29:21;;;;;;;7.80;3.97;;;;;;;;;;5013835;28;20049;-92
2022/06/08 03:31:47;;;;;;;8.82;4.50;;;;;;;;;;5014119;28;20030;-92
2022/06/08 03:34:13;;;;;;;8.50;3.78;;;;;;;;;;5016215;28;20136;-93
2022/06/08 03:36:39;;;;;;;8.13;4.30;;;;;;;;;;5014117;28;20026;-92
2022/06/08 03:39:31;;;;;;;9.43;4.18;;;;;;;;;;5020562;28;20040;-93
2022/06/08 03:48:35;;;;;;;7.00;3.65;;;;;;;;;;5014425;28;20056;-93
2022/06/08 03:51:18;;;;;;;12.88;3.47;;;;;;;;;;4952920;28;20043;-93
2022/06/08 03:53:59;;;;;;;9.80;4.05;;;;;;;;;;5005763;28;20424;-92
2022/06/08 03:56:26;;;;;;;10.40;4.22;;;;;;;;;;4996532;28;20045;-92
2022/06/08 03:58:52;;;;;;;6.95;4.13;;;;;;;;;;5012575;28;20026;-92
2022/06/08 04:01:19;;;;;;;6.93;4.03;;;;;;;;;;5012825;28;20018;-93
2022/06/08 04:03:47;;;;;;;11.73;3.97;;;;;;;;;;5012825;28;20480;-92
2022/06/08 04:06:13;;;;;;;9.25;3.50;;;;;;;;;;5013900;28;20030;-92
2022/06/08 04:21:14;;;;;;;10.32;3.92;;;;;;;;;;4995367;28;20673;-91
2022/06/08 04:23:42;;;;;;;4.78;3.42;;;;;;;;;;4995139;28;20054;-92
2022/06/08 04:26:09;;;;;;;6.47;4.03;;;;;;;;;;4984619;28;20031;-91
2022/06/08 04:28:35;;;;;;;9.00;3.53;;;;;;;;;;4986172;28;20031;-92
2022/06/08 04:31:01;;;;;;;12.10;3.90;;;;;;;;;;4998190;28;20007;-94
2022/06/08 04:33:27;;;;;;;8.35;3.17;;;;;;;;;;4980491;28;20046;-92
2022/06/08 04:35:53;;;;;;;12.18;3.97;;;;;;;;;;4973927;28;20030;-91
2022/06/08 04:44:30;;;;;;;5.65;3.63;;;;;;;;;;4959481;28;20086;-91
2022/06/08 04:47:13;;;;;;;9.15;4.32;;;;;;;;;;4973599;28;20081;-92
2022/06/08 04:49:43;;;;;;;6.43;4.53;;;;;;;;;;4973766;28;20050;-92
2022/06/08 04:55:20;;;;;;;10.50;4.90;;;;;;;;;;4973969;28;20038;-92
2022/06/08 04:57:46;;;;;;;8.45;4.43;;;;;;;;;;4973264;28;20027;-92
2022/06/08 05:00:20;;;;;;;8.82;4.72;;;;;;;;;;4973900;28;20050;-91
2022/06/08 05:02:49;;;;;;;9.43;4.55;;;;;;;;;;4979223;28;20535;-94
2022/06/08 05:05:29;;;;;;;6.05;3.75;;;;;;;;;;4982953;28;20019;-92
2022/06/08 05:07:56;;;;;;;6.95;3.70;;;;;;;;;;4979598;28;20026;-93
2022/06/08 05:10:27;;;;;;;10.65;3.92;;;;;;;;;;4983999;28;20027;-92
2022/06/08 05:13:04;;;;;;;10.82;4.03;;;;;;;;;;4979561;28;20034;-93
2022/06/08 05:15:39;;;;;;;9.27;3.47;;;;;;;;;;4990066;28;20404;-93
2022/06/08 05:18:08;;;;;;;8.02;3.65;;;;;;;;;;4966276;28;20038;-92
2022/06/08 05:20:37;;;;;;;11.35;3.08;;;;;;;;;;4982833;28;20031;-91
2022/06/08 05:23:04;;;;;;;4.18;2.28;;;;;;;;;;4977333;28;20022;-92
2022/06/08 05:25:33;;;;;;;8.05;2.85;;;;;;;;;;4978959;28;20037;-92
2022/06/08 05:27:59;;;;;;;12.15;2.53;;;;;;;;;;4982014;28;20023;-93
2022/06/08 05:30:25;;;;;;;10.18;2.83;;;;;;;;;;4979718;28;20034;-91
2022/06/08 05:32:52;;;;;;;5.03;2.28;;;;;;;;;;4978020;28;20056;-92
2022/06/08 05:35:21;;;;;;;10.40;2.60;;;;;;;;;;4978692;28;20058;-93
2022/06/08 05:37:47;;;;;;;7.07;1.70;;;;;;;;;;4976546;28;20031;-92
2022/06/08 05:40:14;;;;;;;8.07;2.10;;;;;;;;;;4975132;28;20081;-91
2022/06/08 05:42:41;;;;;;;3.03;1.95;;;;;;;;;;4978516;28;20133;-93
2022/06/08 05:45:09;;;;;;;10.82;2.30;;;;;;;;;;4977965;28;20081;-90
2022/06/08 05:47:35;;;;;;;5.63;2.63;;;;;;;;;;4978516;28;20053;-92
2022/06/08 05:50:01;;;;;;;5.65;2.22;;;;;;;;;;4976171;28;20063;-93
2022/06/08 05:52:27;;;;;;;2.58;2.00;;;;;;;;;;4977954;28;20027;-91
2022/06/08 05:54:53;;;;;;;5.20;2.00;;;;;;;;;;4979805;28;20042;-91
2022/06/08 05:57:20;;;;;;;7.25;2.63;;;;;;;;;;4980327;28;20037;-90
2022/06/08 05:59:46;;;;;;;7.28;2.20;;;;;;;;;;4980148;28;20050;-91
2022/06/08 06:02:13;;;;;;;3.88;2.30;;;;;;;;;;4994752;28;20114;-90
2022/06/08 06:04:39;;;;;;;5.15;1.90;;;;;;;;;;4979666;28;20618;-92
2022/06/08 06:07:05;;;;;;;6.47;2.10;;;;;;;;;;4977772;28;20019;-90
2022/06/08 06:09:32;;;;;;;5.38;2.63;;;;;;;;;;4977723;28;20058;-93
2022/06/08 06:11:59;;;;;;;3.15;1.85;;;;;;;;;;4980373;28;20536;-91
2022/06/08 06:14:25;;;;;;;3.40;2.22;;;;;;;;;;4976993;28;20446;-93
2022/06/08 06:16:51;;;;;;;5.78;1.95;;;;;;;;;;4974805;28;20031;-91
2022/06/08 06:19:17;;;;;;;3.47;2.20;;;;;;;;;;4982964;28;20065;-92
2022/06/08 06:21:43;;;;;;;3.55;1.83;;;;;;;;;;4993779;28;20029;-92
2022/06/08 06:24:09;;;;;;;2.80;1.60;;;;;;;;;;4976556;28;20369;-90
2022/06/08 06:26:35;;;;;;;6.07;1.80;;;;;;;;;;4994189;28;20048;-92
2022/06/08 06:29:01;;;;;;;4.60;2.13;;;;;;;;;;4996131;28;20041;-92
2022/06/08 06:31:37;;;;;;;3.90;1.58;;;;;;;;;;4992960;28;20114;-92
2022/06/08 06:34:03;;;;;;;4.35;1.73;;;;;;;;;;4992529;28;20026;-91
2022/06/08 06:36:29;;;;;;;6.60;1.75;;;;;;;;;;4992886;28;20035;-92
2022/06/08 06:38:55;;;;;;;3.10;1.40;;;;;;;;;;4996162;28;20015;-92
2022/06/08 06:41:21;;;;;;;3.15;1.50;;;;;;;;;;4997039;28;20027;-92
2022/06/08 06:43:48;;;;;;;12.35;2.17;;;;;;;;;;5014298;28;20013;-92
2022/06/08 06:46:15;;;;;;;2.95;1.30;;;;;;;;;;5011111;28;20057;-92
2022/06/08 06:48:42;;;;;;;6.32;1.25;;;;;;;;;;4999783;28;20105;-92
2022/06/08 06:51:08;;;;;;;5.40;1.40;;;;;;;;;;4993734;28;20070;-92
2022/06/08 06:53:35;;;;;;;6.18;1.60;;;;;;;;;;4993938;28;20076;-91
2022/06/08 06:56:01;;;;;;;3.63;1.55;;;;;;;;;;4977691;28;20027;-91
2022/06/08 06:58:28;;;;;;;3.65;1.17;;;;;;;;;;4993891;28;20030;-93
2022/06/08 07:00:54;;;;;;;5.97;1.30;;;;;;;;;;4995332;28;20112;-92
2022/06/08 07:03:21;;;;;;;2.75;1.25;;;;;;;;;;4995091;28;20022;-92
2022/06/08 07:05:47;;;;;;;7.70;1.60;;;;;;;;;;4995054;28;20102;-93
2022/06/08 07:08:14;;;;;;;7.80;1.58;;;;;;;;;;4994499;28;20137;-92
2022/06/08 07:10:40;;;;;;;6.47;1.17;;;;;;;;;;4993757;28;20022;-92
2022/06/08 07:13:06;;;;;;;4.47;1.40;;;;;;;;;;4993962;28;20023;-90
2022/06/08 07:15:33;;;;;;;1.60;1.08;;;;;;;;;;4993000;28;20030;-93
2022/06/08 07:18:02;;;;;;;7.32;1.40;;;;;;;;;;5013534;28;20022;-96
2022/06/08 07:20:28;;;;;;;3.88;1.27;;;;;;;;;;5157603;23;20512;-93
2022/06/08 07:22:54;;;;;;;6.65;1.48;;;;;;;;;;5007180;28;20022;-95
2022/06/08 07:25:20;;;;;;;9.95;2.47;;;;;;;;;;5010958;28;20030;-91
2022/06/08 07:27:47;;;;;;;5.82;1.58;;;;;;;;;;5004921;28;20433;-94
2022/06/08 07:30:14;;;;;;;12.18;1.85;;;;;;;;;;5010437;28;20062;-93
2022/06/08 07:32:40;;;;;;;3.58;1.00;;;;;;;;;;5005591;28;20022;-93
2022/06/08 07:35:07;;;;;;;2.58;1.25;;;;;;;;;;5004103;28;20026;-91
2022/06/08 07:37:33;;;;;;;6.93;1.20;;;;;;;;;;4988590;28;20035;-92
2022/06/08 07:39:59;;;;;;;3.47;1.13;;;;;;;;;;4984723;28;20106;-91
2022/06/08 07:42:27;;;;;;;4.63;1.17;;;;;;;;;;4996193;28;20039;-90
2022/06/08 07:44:53;;;;;;;5.47;1.10;;;;;;;;;;4977918;28;20035;-90
2022/06/08 07:47:19;;;;;;;2.30;1.35;;;;;;;;;;4974039;28;20030;-90
2022/06/08 07:49:49;;;;;;;5.13;1.23;;;;;;;;;;4973893;28;20027;-89
2022/06/08 07:52:31;;;;;;;3.85;1.48;;;;;;;;;;4975135;28;20412;-90
2022/06/08 07:54:57;;;;;;;3.60;1.30;;;;;;;;;;4975454;28;20508;-90
2022/06/08 07:57:25;;;;;;;5.03;0.90;;;;;;;;;;4973815;28;20070;-90
2022/06/08 07:59:52;;;;;;;5.28;1.25;;;;;;;;;;4973465;28;20019;-89
2022/06/08 08:02:18;;;;;;;8.57;1.55;;;;;;;;;;4974528;28;20462;-89
2022/06/08 08:04:44;;;;;;;3.72;0.77;;;;;;;;;;4973919;28;20057;-90
2022/06/08 08:07:11;;;;;;;6.03;1.40;;;;;;;;;;4975030;28;20035;-90
2022/06/08 08:09:37;;;;;;;5.32;0.90;;;;;;;;;;4974667;28;20022;-90
2022/06/08 08:12:05;;;;;;;3.08;0.82;;;;;;;;;;4973470;28;20030;-89
2022/06/08 08:14:33;;;;;;;9.20;1.20;;;;;;;;;;4973805;28;20370;-89
2022/06/08 08:17:00;;;;;;;2.33;1.00;;;;;;;;;;4974767;28;20034;-89
2022/06/08 08:19:26;;;;;;;3.15;1.10;;;;;;;;;;4957262;28;20039;-89
2022/06/08 08:21:54;;;;;;;4.43;1.42;;;;;;;;;;4973784;28;20532;-88
2022/06/08 08:24:22;;;;;;;6.13;1.15;;;;;;;;;;4973569;28;20035;-89
2022/06/08 08:26:58;;;;;;;4.13;1.30;;;;;;;;;;4974757;28;20552;-89
2022/06/08 08:29:24;;;;;;;5.72;1.25;;;;;;;;;;4975247;28;20023;-90
2022/06/08 08:31:50;;;;;;;4.82;1.00;;;;;;;;;;4973620;28;20034;-88
2022/06/08 08:34:17;;;;;;;7.10;1.30;;;;;;;;;;4974648;28;20054;-90
2022/06/08 08:36:43;;;;;;;7.47;1.20;;;;;;;;;;4972576;28;20088;-90
2022/06/08 08:39:10;;;;;;;3.13;1.38;;;;;;;;;;4972733;28;20125;-90
2022/06/08 08:44:39;;;;;;;2.70;1.10;;;;;;;;;;4974195;28;20054;-89
2022/06/08 08:47:13;;;;;;;5.85;1.10;;;;;;;;;;4974183;28;20030;-89
2022/06/08 08:49:41;;;;;;;8.20;1.40;;;;;;;;;;4978496;28;20099;-89
2022/06/08 08:52:16;;;;;;;3.80;1.15;;;;;;;;;;4977905;28;20023;-90
2022/06/08 08:54:51;;;;;;;5.07;1.35;;;;;;;;;;4979352;28;20085;-88
2022/06/08 08:57:28;;;;;;;5.90;1.00;;;;;;;;;;4977839;28;20042;-89
2022/06/08 08:59:58;;;;;;;1.80;1.00;;;;;;;;;;4977967;28;20035;-88
2022/06/08 09:05:13;;;;;;;10.52;1.30;;;;;;;;;;4998156;28;20138;-89
2022/06/08 09:07:39;;;;;;;4.47;0.90;;;;;;;;;;4996649;28;20042;-88
2022/06/08 09:10:07;;;;;;;6.88;1.63;;;;;;;;;;4996423;28;20483;-89
2022/06/08 09:12:33;;;;;;;3.38;1.02;;;;;;;;;;4996416;28;20041;-88
2022/06/08 09:15:00;;;;;;;7.60;0.90;;;;;;;;;;4996061;28;20065;-90
2022/06/08 09:17:33;;;;;;;9.82;1.02;;;;;;;;;;4996347;28;20027;-89
2022/06/08 09:20:00;;;;;;;7.25;1.13;;;;;;;;;;4995966;28;20066;-89
2022/06/08 09:22:29;;;;;;;6.97;1.08;;;;;;;;;;4994697;28;20488;-89
2022/06/08 09:24:57;;;;;;;5.85;1.17;;;;;;;;;;4997944;28;20026;-89
2022/06/08 09:27:25;;;;;;;8.38;1.00;;;;;;;;;;5021179;28;20188;-95
2022/06/08 09:30:11;;;;;;;6.60;1.08;;;;;;;;;;5003190;28;20061;-89
2022/06/08 09:32:44;;;;;;;4.80;1.00;;;;;;;;;;4995003;28;20050;-89
2022/06/08 09:35:16;;;;;;;5.90;0.98;;;;;;;;;;4980087;28;20593;-88
2022/06/08 09:37:43;;;;;;;1.60;0.70;;;;;;;;;;4996273;28;20022;-92
2022/06/08 09:40:36;;;;;;;5.00;1.15;;;;;;;;;;4995576;28;20069;-88
2022/06/08 09:43:05;;;;;;;3.67;0.90;;;;;;;;;;4997158;28;20122;-88
2022/06/08 09:45:49;;;;;;;3.30;1.15;;;;;;;;;;4998128;28;20022;-87
2022/06/08 09:51:28;;;;;;;2.83;0.93;;;;;;;;;;4994171;28;20046;-87
2022/06/08 09:54:12;;;;;;;6.88;1.65;;;;;;;;;;4983404;28;20106;-88
2022/06/08 09:56:57;;;;;;;5.32;1.35;;;;;;;;;;4987295;28;20034;-87
2022/06/08 09:59:42;;;;;;;2.15;0.90;;;;;;;;;;4975914;28;20062;-86
2022/06/08 10:02:14;;;;;;;6.35;1.77;;;;;;;;;;4976484;28;20054;-86
2022/06/08 10:05:03;;;;;;;3.20;1.10;;;;;;;;;;4979330;28;20050;-85
2022/06/08 10:07:52;;;;;;;6.00;1.40;;;;;;;;;;4976742;28;20085;-88
2022/06/08 10:10:44;;;;;;;3.72;1.02;;;;;;;;;;4975725;28;20027;-89
2022/06/08 10:13:23;;;;;;;6.57;1.60;;;;;;;;;;4984125;28;20062;-88
2022/06/08 10:15:51;;;;;;;9.65;2.17;;;;;;;;;;4998275;28;20030;-87
2022/06/08 10:18:24;;;;;;;3.95;0.98;;;;;;;;;;4995180;28;20026;-88
2022/06/08 10:21:01;;;;;;;6.20;1.10;;;;;;;;;;4980810;28;20066;-87
2022/06/08 10:23:47;;;;;;;7.40;1.40;;;;;;;;;;4982811;28;20022;-87
2022/06/08 10:26:22;;;;;;;5.13;1.20;;;;;;;;;;4995556;28;20034;-89
2022/06/08 10:28:52;;;;;;;3.38;1.02;;;;;;;;;;4986302;28;20352;-88
2022/06/08 10:31:21;;;;;;;4.45;0.95;;;;;;;;;;4991747;28;20073;-91
2022/06/08 10:34:04;;;;;;;4.45;1.15;;;;;;;;;;4992856;28;20030;-90
2022/06/08 10:36:31;;;;;;;8.48;1.13;;;;;;;;;;4976038;28;20496;-89
2022/06/08 10:38:59;;;;;;;5.07;1.00;;;;;;;;;;4978275;28;20045;-88
2022/06/08 10:44:34;;;;;;;5.32;1.00;;;;;;;;;;4982990;28;20023;-87
2022/06/08 10:47:21;;;;;;;7.80;1.30;;;;;;;;;;4974875;28;20031;-88
2022/06/08 10:49:49;;;;;;;6.47;1.40;;;;;;;;;;4975998;28;20400;-87
2022/06/08 10:52:16;;;;;;;4.53;1.20;;;;;;;;;;4990116;28;20031;-89
2022/06/08 10:54:55;;;;;;;8.20;1.48;;;;;;;;;;4975827;28;20023;-89
2022/06/08 10:57:37;;;;;;;3.92;1.08;;;;;;;;;;4974326;28;20031;-87
2022/06/08 11:00:21;;;;;;;3.53;1.17;;;;;;;;;;4974328;28;20434;-89
2022/06/08 11:02:47;;;;;;;4.80;1.10;;;;;;;;;;4974810;28;20033;-89
2022/06/08 11:05:13;;;;;;;5.88;1.45;;;;;;;;;;4976239;28;20109;-89
2022/06/08 11:08:06;;;;;;;6.05;1.33;;;;;;;;;;4974175;28;20023;-89
2022/06/08 11:10:45;;;;;;;6.47;1.30;;;;;;;;;;4972794;28;20038;-88
2022/06/08 11:13:23;;;;;;;2.53;1.00;;;;;;;;;;4990024;28;20037;-88
2022/06/08 11:15:52;;;;;;;6.22;1.02;;;;;;;;;;4995141;28;20048;-86
2022/06/08 11:18:26;;;;;;;7.60;1.17;;;;;;;;;;4994735;28;20117;-87
2022/06/08 11:21:15;;;;;;;3.33;1.20;;;;;;;;;;4974869;28;20057;-87
2022/06/08 11:23:57;;;;;;;5.53;1.27;;;;;;;;;;4973846;28;20046;-85
2022/06/08 11:26:23;;;;;;;6.30;1.02;;;;;;;;;;4990072;28;20023;-85
2022/06/08 11:28:57;;;;;;;5.70;1.10;;;;;;;;;;4992888;28;20114;-85
2022/06/08 11:31:26;;;;;;;7.05;1.30;;;;;;;;;;4978644;28;20039;-87
2022/06/08 11:34:11;;;;;;;5.22;1.20;;;;;;;;;;4993353;28;20049;-87
2022/06/08 11:36:37;;;;;;;4.75;1.02;;;;;;;;;;4993958;28;20097;-85
2022/06/08 11:39:05;;;;;;;5.20;1.13;;;;;;;;;;4980937;28;20508;-87
2022/06/08 11:41:41;;;;;;;8.05;1.45;;;;;;;;;;4974603;28;20023;-87
2022/06/08 11:44:18;;;;;;;6.70;1.70;;;;;;;;;;4974460;28;20031;-85
2022/06/08 11:46:46;;;;;;;14.93;2.13;;;;;;;;;;4978060;28;20037;-86
2022/06/08 11:49:32;;;;;;;9.50;1.27;;;;;;;;;;4989028;28;20037;-87
2022/06/08 11:51:59;;;;;;;5.50;1.25;;;;;;;;;;4972679;28;20497;-87
2022/06/08 11:54:31;;;;;;;4.47;1.13;;;;;;;;;;4973285;28;20087;-86
2022/06/08 11:57:03;;;;;;;10.18;1.70;;;;;;;;;;4972640;28;20031;-87
2022/06/08 11:59:30;;;;;;;4.60;1.48;;;;;;;;;;4972977;28;20026;-86
2022/06/08 12:02:00;;;;;;;8.05;1.10;;;;;;;;;;4972751;28;20023;-85
2022/06/08 12:04:29;;;;;;;1.70;1.10;;;;;;;;;;4974652;28;20023;-87
2022/06/08 12:06:58;;;;;;;3.55;1.17;;;;;;;;;;4973785;28;20117;-86
2022/06/08 12:09:37;;;;;;;7.20;1.73;;;;;;;;;;4972735;28;20058;-86
2022/06/08 12:12:17;;;;;;;4.10;1.50;;;;;;;;;;4972752;28;20061;-86
2022/06/08 12:14:43;;;;;;;4.68;1.13;;;;;;;;;;4974275;28;20219;-87
2022/06/08 12:17:12;;;;;;;8.27;1.65;;;;;;;;;;4972996;28;20409;-86
2022/06/08 12:19:44;;;;;;;2.95;1.40;;;;;;;;;;4982897;28;20052;-86
2022/06/08 12:22:10;;;;;;;2.90;1.20;;;;;;;;;;4991810;28;20030;-86
2022/06/08 12:24:37;;;;;;;10.70;1.83;;;;;;;;;;4993874;28;20022;-86
2022/06/08 12:27:13;;;;;;;6.50;1.33;;;;;;;;;;4975440;28;20493;-87
2022/06/08 12:29:47;;;;;;;7.72;1.38;;;;;;;;;;5002102;28;20030;-92
2022/06/08 12:32:18;;;;;;;5.55;1.65;;;;;;;;;;5009870;28;20054;-86
2022/06/08 12:34:46;;;;;;;8.40;1.30;;;;;;;;;;4994550;28;20042;-88
2022/06/08 12:37:30;;;;;;;3.58;1.70;;;;;;;;;;4991519;28;20487;-86
2022/06/08 12:39:58;;;;;;;5.57;1.90;;;;;;;;;;4989523;28;20026;-86
2022/06/08 12:42:32;;;;;;;5.25;1.38;;;;;;;;;;4975260;28;20027;-86
2022/06/08 12:44:59;;;;;;;8.10;1.98;;;;;;;;;;4994260;28;20077;-87
2022/06/08 12:47:29;;;;;;;4.13;1.45;;;;;;;;;;4993492;28;20026;-86
2022/06/08 12:49:59;;;;;;;6.13;2.08;;;;;;;;;;4979333;28;20037;-86
2022/06/08 12:52:32;;;;;;;6.22;1.58;;;;;;;;;;4972798;28;20110;-86
2022/06/08 12:54:59;;;;;;;7.45;1.55;;;;;;;;;;4978787;28;20030;-86
2022/06/08 12:57:31;;;;;;;4.93;1.73;;;;;;;;;;4991742;28;20069;-86
2022/06/08 12:59:58;;;;;;;3.97;1.50;;;;;;;;;;4989009;28;20022;-86
2022/06/08 13:02:29;;;;;;;10.10;1.70;;;;;;;;;;4987519;28;20030;-86
2022/06/08 13:04:56;;;;;;;5.97;1.50;;;;;;;;;;4977407;28;20030;-87
2022/06/08 13:07:24;;;;;;;5.68;1.80;;;;;;;;;;4974601;28;20058;-86
2022/06/08 13:09:50;;;;;;;8.93;1.58;;;;;;;;;;4972277;28;20042;-86
2022/06/08 13:12:19;;;;;;;3.38;1.30;;;;;;;;;;4972868;28;20747;-86
2022/06/08 13:14:45;;;;;;;5.78;0.90;;;;;;;;;;4972561;28;20211;-87
2022/06/08 13:17:12;;;;;;;8.95;1.60;;;;;;;;;;4985446;28;20140;-87
2022/06/08 13:19:38;;;;;;;8.70;1.75;;;;;;;;;;4993073;28;20085;-85
2022/06/08 13:22:05;;;;;;;5.85;1.02;;;;;;;;;;4991802;28;20023;-87
2022/06/08 13:24:33;;;;;;;5.78;1.30;;;;;;;;;;4991509;28;20052;-86
2022/06/08 13:27:00;;;;;;;5.55;1.73;;;;;;;;;;4986899;28;20054;-87
2022/06/08 13:29:26;;;;;;;7.07;1.58;;;;;;;;;;4974464;28;20038;-88
2022/06/08 13:31:52;;;;;;;6.20;1.42;;;;;;;;;;4972620;28;20037;-86
2022/06/08 13:34:21;;;;;;;12.13;2.20;;;;;;;;;;4975325;28;20027;-87
2022/06/08 13:36:47;;;;;;;2.72;1.70;;;;;;;;;;4976311;28;20033;-87
2022/06/08 13:39:30;;;;;;;9.13;2.30;;;;;;;;;;4995132;28;20018;-87
2022/06/08 13:41:59;;;;;;;4.95;1.80;;;;;;;;;;4979853;28;20018;-87
2022/06/08 13:44:45;;;;;;;5.22;2.22;;;;;;;;;;4977833;28;20030;-86
2022/06/08 13:47:11;;;;;;;4.22;1.80;;;;;;;;;;4995235;28;20046;-86
2022/06/08 13:49:38;;;;;;;5.50;2.75;;;;;;;;;;4995959;28;20033;-86
2022/06/08 13:52:05;;;;;;;7.32;2.55;;;;;;;;;;4995766;28;20088;-86
2022/06/08 13:54:34;;;;;;;6.57;2.17;;;;;;;;;;4992005;28;20652;-87
2022/06/08 13:57:00;;;;;;;8.50;3.28;;;;;;;;;;4991963;28;20531;-87
2022/06/08 13:59:28;;;;;;;9.05;2.40;;;;;;;;;;4982428;28;20031;-88
2022/06/08 14:01:54;;;;;;;6.50;2.20;;;;;;;;;;4983695;28;20019;-87
2022/06/08 14:04:23;;;;;;;10.80;1.88;;;;;;;;;;4991769;28;20034;-87
2022/06/08 14:15:05;;;;;;;9.18;2.50;;;;;;;;;;5014338;28;20069;-90
2022/06/08 14:17:32;;;;;;;6.78;2.22;;;;;;;;;;5017960;28;20088;-90
2022/06/08 14:19:59;;;;;;;5.53;2.28;;;;;;;;;;5009804;28;20034;-87
2022/06/08 14:22:28;;;;;;;8.68;2.60;;;;;;;;;;4995754;28;20023;-86
2022/06/08 14:25:02;;;;;;;3.60;1.98;;;;;;;;;;4996012;28;20045;-86
2022/06/08 14:27:28;;;;;;;7.13;2.13;;;;;;;;;;4993671;28;20065;-88
2022/06/08 14:29:54;;;;;;;4.63;2.33;;;;;;;;;;4994755;28;20488;-87
2022/06/08 14:32:20;;;;;;;8.38;2.65;;;;;;;;;;4994222;28;20026;-89
2022/06/08 14:34:48;;;;;;;9.63;2.85;;;;;;;;;;4994657;28;20172;-89
2022/06/08 14:37:15;;;;;;;5.68;2.30;;;;;;;;;;4995376;28;20064;-89
2022/06/08 14:39:41;;;;;;;7.75;2.60;;;;;;;;;;4996326;28;20022;-89
2022/06/08 14:42:07;;;;;;;10.63;2.78;;;;;;;;;;4997266;28;20022;-89
2022/06/08 14:44:34;;;;;;;6.22;2.50;;;;;;;;;;4995740;28;20026;-89
2022/06/08 14:47:01;;;;;;;8.73;2.95;;;;;;;;;;4997706;28;20049;-89
2022/06/08 14:49:30;;;;;;;14.80;3.05;;;;;;;;;;4998227;28;20046;-89
2022/06/08 14:51:56;;;;;;;8.85;3.10;;;;;;;;;;4995979;28;20026;-88
2022/06/08 14:54:23;;;;;;;10.60;3.22;;;;;;;;;;4997534;28;20033;-89
2022/06/08 14:56:53;;;;;;;6.57;2.90;;;;;;;;;;4997225;28;20034;-88
2022/06/08 14:59:23;;;;;;;6.95;3.10;;;;;;;;;;4997650;28;20125;-89
2022/06/08 15:01:50;;;;;;;7.30;3.37;;;;;;;;;;4996370;28;20033;-89
2022/06/08 15:04:19;;;;;;;7.82;3.17;;;;;;;;;;4996771;28;20019;-89
2022/06/08 15:06:45;;;;;;;11.80;3.80;;;;;;;;;;4997104;28;20027;-91
2022/06/08 15:09:12;;;;;;;12.55;3.33;;;;;;;;;;4994914;28;20018;-90
2022/06/08 15:14:26;;;;;;;10.18;3.20;;;;;;;;;;4995829;28;20041;-90
2022/06/08 15:16:53;;;;;;;15.60;3.70;;;;;;;;;;4997609;28;20050;-89
2022/06/08 15:19:21;;;;;;;11.02;3.30;;;;;;;;;;4996751;28;20026;-87
2022/06/08 15:21:48;;;;;;;11.75;3.63;;;;;;;;;;4994848;28;20027;-88
2022/06/08 15:24:15;;;;;;;8.32;3.47;;;;;;;;;;4993189;28;20034;-90
2022/06/08 15:26:42;;;;;;;8.23;2.97;;;;;;;;;;4977679;28;20034;-88
2022/06/08 15:29:28;;;;;;;12.40;3.17;;;;;;;;;;4976263;28;20440;-88
2022/06/08 15:31:54;;;;;;;6.47;3.25;;;;;;;;;;4986868;28;20129;-89
2022/06/08 15:34:22;;;;;;;9.50;3.22;;;;;;;;;;4995010;28;20132;-88
2022/06/08 15:36:48;;;;;;;9.07;3.10;;;;;;;;;;4995221;28;20033;-87
2022/06/08 15:39:17;;;;;;;8.13;2.85;;;;;;;;;;4995678;28;20030;-89
2022/06/08 15:41:43;;;;;;;4.35;2.58;;;;;;;;;;4994141;28;20026;-88
2022/06/08 15:44:10;;;;;;;4.82;2.60;;;;;;;;;;4995813;28;20133;-89
2022/06/08 15:46:38;;;;;;;5.15;1.85;;;;;;;;;;4994964;28;20492;-86
2022/06/08 15:49:07;;;;;;;6.32;2.17;;;;;;;;;;4994771;28;20030;-88
2022/06/08 15:51:33;;;;;;;4.07;1.63;;;;;;;;;;4992688;28;20109;-88
2022/06/08 15:54:01;;;;;;;4.78;1.60;;;;;;;;;;4994315;28;20025;-87
2022/06/08 15:56:29;;;;;;;4.10;1.85;;;;;;;;;;4991693;28;20088;-87
2022/06/08 15:58:58;;;;;;;5.35;1.33;;;;;;;;;;4992768;28;20018;-88
2022/06/08 16:01:24;;;;;;;5.85;1.90;;;;;;;;;;4993664;28;20152;-87
2022/06/08 16:03:50;;;;;;;3.55;1.50;;;;;;;;;;4994211;28;20030;-87
2022/06/08 16:06:16;;;;;;;2.58;1.45;;;;;;;;;;4994692;28;20138;-88
2022/06/08 16:08:42;;;;;;;5.97;1.75;;;;;;;;;;4993036;28;20396;-88
2022/06/08 16:11:08;;;;;;;12.20;1.95;;;;;;;;;;4994210;28;20034;-90